createdAt,value
2022-12-06T00:02:47.056Z,14.03
2022-12-06T00:05:52.092Z,14.67
2022-12-06T00:08:56.211Z,15.17
2022-12-06T00:12:00.412Z,15.67
2022-12-06T00:15:04.235Z,13.73
2022-12-06T00:18:07.903Z,13.13
2022-12-06T00:21:16.214Z,13.47
2022-12-06T00:24:23.301Z,13.93
2022-12-06T00:27:26.996Z,13.53
2022-12-06T00:30:30.660Z,14.43
2022-12-06T00:33:35.476Z,13.60
2022-12-06T00:36:43.172Z,13.90
2022-12-06T00:39:46.840Z,13.27
2022-12-06T00:42:50.517Z,12.27
2022-12-06T00:45:54.185Z,12.37
2022-12-06T00:49:00.711Z,11.47
2022-12-06T00:52:06.216Z,10.53
2022-12-06T00:55:10.524Z,11.17
2022-12-06T00:58:14.878Z,10.10
2022-12-06T01:01:21.556Z,10.10
2022-12-06T01:04:25.277Z,10.60
2022-12-06T01:07:30.376Z,9.53
2022-12-06T01:10:33.989Z,10.40
2022-12-06T01:13:38.413Z,10.73
2022-12-06T01:16:42.030Z,9.60
2022-12-06T01:19:45.797Z,9.47
2022-12-06T01:22:50.804Z,10.20
2022-12-06T01:25:54.430Z,10.00
2022-12-06T01:28:59.753Z,10.83
2022-12-06T01:32:03.414Z,8.57
2022-12-06T01:35:10.566Z,8.83
2022-12-06T01:38:15.575Z,10.03
2022-12-06T01:41:20.093Z,11.30
2022-12-06T01:44:44.765Z,10.07
2022-12-06T01:47:48.792Z,9.57
2022-12-06T01:50:53.799Z,9.77
2022-12-06T01:54:02.746Z,9.00
2022-12-06T01:57:13.298Z,9.93
2022-12-06T02:00:17.832Z,9.80
2022-12-06T02:03:27.324Z,10.07
2022-12-06T02:06:33.251Z,11.60
2022-12-06T02:09:39.686Z,10.50
2022-12-06T02:12:43.319Z,11.43
2022-12-06T02:15:57.503Z,9.70
2022-12-06T02:19:19.142Z,10.90
2022-12-06T02:22:35.739Z,10.73
2022-12-06T02:26:22.417Z,10.70
2022-12-06T02:30:12.648Z,11.07
2022-12-06T02:33:26.521Z,10.97
2022-12-06T02:36:39.874Z,10.67
2022-12-06T02:39:52.083Z,10.53
2022-12-06T02:43:02.643Z,9.90
2022-12-06T02:46:10.193Z,10.67
2022-12-06T02:49:17.011Z,11.03
2022-12-06T02:52:25.351Z,10.50
2022-12-06T02:55:31.135Z,9.70
2022-12-06T02:58:37.154Z,10.50
2022-12-06T03:01:46.858Z,9.33
2022-12-06T03:05:09.988Z,9.07
2022-12-06T03:08:25.419Z,9.00
2022-12-06T03:11:43.734Z,9.07
2022-12-06T03:14:59.631Z,8.73
2022-12-06T03:18:17.330Z,9.30
2022-12-06T03:21:30.749Z,8.17
2022-12-06T03:24:40.779Z,10.17
2022-12-06T03:27:47.913Z,7.43
2022-12-06T03:30:58.921Z,9.63
2022-12-06T03:34:11.862Z,10.03
2022-12-06T03:37:24.743Z,9.80
2022-12-06T03:40:33.712Z,10.13
2022-12-06T03:43:37.471Z,8.60
2022-12-06T03:46:48.877Z,10.23
2022-12-06T03:50:00.146Z,11.00
2022-12-06T03:53:05.553Z,10.57
2022-12-06T03:56:09.414Z,9.93
2022-12-06T03:59:13.616Z,9.97
2022-12-06T04:02:17.428Z,10.13
2022-12-06T04:05:21.079Z,11.07
2022-12-06T04:08:26.136Z,10.63
2022-12-06T04:11:29.670Z,12.37
2022-12-06T04:14:39.372Z,11.30
2022-12-06T04:18:01.279Z,10.13
2022-12-06T04:21:34.743Z,10.00
2022-12-06T04:24:39.890Z,10.70
2022-12-06T04:28:00.991Z,9.57
2022-12-06T04:31:22.710Z,10.50
2022-12-06T04:34:44.468Z,10.77
2022-12-06T04:38:05.412Z,10.60
2022-12-06T04:41:10.705Z,9.63
2022-12-06T04:44:13.298Z,10.10
2022-12-06T04:47:17.310Z,10.53
2022-12-06T04:50:21.026Z,11.37
2022-12-06T04:53:24.599Z,10.27
2022-12-06T04:56:29.630Z,9.80
2022-12-06T04:59:33.272Z,10.23
2022-12-06T05:02:36.970Z,10.10
2022-12-06T05:05:41.337Z,10.77
2022-12-06T05:08:44.974Z,11.07
2022-12-06T05:11:49.981Z,10.80
2022-12-06T05:14:53.681Z,10.87
2022-12-06T05:17:57.662Z,10.50
2022-12-06T05:21:08.198Z,10.53
2022-12-06T05:24:11.768Z,10.50
2022-12-06T05:27:16.797Z,10.30
2022-12-06T05:30:20.610Z,10.67
2022-12-06T05:33:24.966Z,11.53
2022-12-06T05:36:29.608Z,11.47
2022-12-06T05:39:33.372Z,12.20
2022-12-06T05:42:41.005Z,13.13
2022-12-06T05:45:45.159Z,12.40
2022-12-06T05:48:48.804Z,11.13
2022-12-06T05:51:52.712Z,11.53
2022-12-06T05:54:56.369Z,11.63
2022-12-06T05:58:04.664Z,11.97
2022-12-06T06:01:09.529Z,11.50
2022-12-06T06:04:13.240Z,11.23
2022-12-06T06:07:16.789Z,13.43
2022-12-06T06:10:20.967Z,12.43
2022-12-06T06:13:25.999Z,12.87
2022-12-06T06:16:29.705Z,12.73
2022-12-06T06:19:33.497Z,12.87
2022-12-06T06:22:39.913Z,12.13
2022-12-06T06:25:43.461Z,13.03
2022-12-06T06:28:48.631Z,13.07
2022-12-06T06:31:52.381Z,14.23
2022-12-06T06:34:56.201Z,12.97
2022-12-06T06:37:59.938Z,12.80
2022-12-06T06:41:03.916Z,13.63
2022-12-06T06:44:09.026Z,12.07
2022-12-06T06:47:12.903Z,11.87
2022-12-06T06:50:17.414Z,12.90
2022-12-06T06:53:21.327Z,12.27
2022-12-06T06:56:25.065Z,14.17
2022-12-06T06:59:31.341Z,14.93
2022-12-06T07:02:35.287Z,16.75
2022-12-06T07:05:39.006Z,13.23
2022-12-06T07:08:43.715Z,11.93
2022-12-06T07:11:47.525Z,11.97
2022-12-06T07:14:52.501Z,11.57
2022-12-06T07:17:56.147Z,11.30
2022-12-06T07:21:04.010Z,12.10
2022-12-06T07:24:09.846Z,12.40
2022-12-06T07:27:13.741Z,11.63
2022-12-06T07:30:24.155Z,11.87
2022-12-06T07:33:31.386Z,11.43
2022-12-06T07:36:34.970Z,11.33
2022-12-06T07:39:39.196Z,11.83
2022-12-06T07:43:00.273Z,12.00
2022-12-06T07:46:11.114Z,11.40
2022-12-06T07:49:16.907Z,11.90
2022-12-06T07:52:21.147Z,12.43
2022-12-06T07:55:24.763Z,11.50
2022-12-06T07:58:28.598Z,12.67
2022-12-06T08:01:33.813Z,11.17
2022-12-06T08:04:37.563Z,12.20
2022-12-06T08:07:41.387Z,11.23
2022-12-06T08:10:45.814Z,12.20
2022-12-06T08:13:49.737Z,10.87
2022-12-06T08:16:54.763Z,11.47
2022-12-06T08:19:59.060Z,11.47
2022-12-06T08:23:03.106Z,11.07
2022-12-06T08:26:09.971Z,10.77
2022-12-06T08:29:13.716Z,11.00
2022-12-06T08:32:18.883Z,11.10
2022-12-06T08:35:22.878Z,11.47
2022-12-06T08:38:26.634Z,11.00
2022-12-06T08:41:47.633Z,10.83
2022-12-06T08:44:54.400Z,10.70
2022-12-06T08:47:59.514Z,10.00
2022-12-06T08:51:03.907Z,10.20
2022-12-06T08:54:10.493Z,10.33
2022-12-06T08:57:14.235Z,10.27
2022-12-06T09:00:18.974Z,10.10
2022-12-06T09:03:24.069Z,10.00
2022-12-06T09:06:29.985Z,10.70
2022-12-06T09:09:33.739Z,10.23
2022-12-06T09:12:37.556Z,9.87
2022-12-06T09:15:41.586Z,9.87
2022-12-06T09:18:48.474Z,9.17
2022-12-06T09:21:52.340Z,9.57
2022-12-06T09:24:55.949Z,10.30
2022-12-06T09:28:01.509Z,10.53
2022-12-06T09:31:07.349Z,10.33
2022-12-06T09:34:13.956Z,10.40
2022-12-06T09:37:17.715Z,9.90
2022-12-06T09:40:39.934Z,9.60
2022-12-06T09:44:06.521Z,9.47
2022-12-06T09:47:30.711Z,9.73
2022-12-06T09:50:51.075Z,9.03
2022-12-06T09:54:22.466Z,9.47
2022-12-06T09:57:37.564Z,7.93
2022-12-06T10:00:52.571Z,9.13
2022-12-06T10:04:15.605Z,7.90
2022-12-06T10:07:33.136Z,8.20
2022-12-06T10:10:57.386Z,7.67
2022-12-06T10:14:17.530Z,7.23
2022-12-06T10:17:36.497Z,6.17
2022-12-06T10:20:51.305Z,6.27
2022-12-06T10:24:11.973Z,6.90
2022-12-06T10:27:27.237Z,5.87
2022-12-06T10:30:34.869Z,6.30
2022-12-06T10:33:55.242Z,6.07
2022-12-06T10:37:10.253Z,5.53
2022-12-06T10:40:19.874Z,5.60
2022-12-06T10:43:31.596Z,5.93
2022-12-06T10:47:01.371Z,5.37
2022-12-06T10:50:17.632Z,5.90
2022-12-06T10:53:27.058Z,5.87
2022-12-06T10:56:39.418Z,6.50
2022-12-06T10:59:54.485Z,6.43
2022-12-06T11:03:12.181Z,5.80
2022-12-06T11:06:28.586Z,4.90
2022-12-06T11:09:41.262Z,5.97
2022-12-06T11:12:46.822Z,4.77
2022-12-06T11:15:58.742Z,4.80
2022-12-06T11:19:20.680Z,5.17
2022-12-06T11:22:39.540Z,4.90
2022-12-06T11:26:02.570Z,4.80
2022-12-06T11:29:14.880Z,4.87
2022-12-06T11:32:20.128Z,4.77
2022-12-06T11:35:30.695Z,5.23
2022-12-06T11:38:37.825Z,4.77
2022-12-06T11:41:45.160Z,4.70
2022-12-06T11:44:59.743Z,6.60
2022-12-06T11:48:16.430Z,5.63
2022-12-06T11:51:24.483Z,4.73
2022-12-06T11:54:35.726Z,5.10
2022-12-06T11:57:47.667Z,5.80
2022-12-06T12:01:04.200Z,6.03
2022-12-06T12:04:35.430Z,4.30
2022-12-06T12:07:43.818Z,8.27
2022-12-06T12:11:00.335Z,5.07
2022-12-06T12:14:16.955Z,4.50
2022-12-06T12:17:27.970Z,4.17
2022-12-06T12:20:37.557Z,4.40
2022-12-06T12:23:47.737Z,3.40
2022-12-06T12:26:51.752Z,3.70
2022-12-06T12:30:26.989Z,3.77
2022-12-06T12:33:32.001Z,3.70
2022-12-06T12:36:37.339Z,4.10
2022-12-06T12:39:48.320Z,3.97
2022-12-06T12:43:00.974Z,4.67
2022-12-06T12:46:18.852Z,4.00
2022-12-06T12:49:32.402Z,3.10
2022-12-06T12:52:40.983Z,4.37
2022-12-06T12:55:44.950Z,4.37
2022-12-06T12:58:51.477Z,4.03
2022-12-06T13:02:03.052Z,4.60
2022-12-06T13:05:35.185Z,4.30
2022-12-06T13:08:41.328Z,4.10
2022-12-06T13:11:53.834Z,3.87
2022-12-06T13:15:08.348Z,3.10
2022-12-06T13:18:21.305Z,3.10
2022-12-06T13:21:33.006Z,3.67
2022-12-06T13:24:39.211Z,3.80
2022-12-06T13:27:49.757Z,3.30
2022-12-06T13:31:04.239Z,3.30
2022-12-06T13:34:22.376Z,2.83
2022-12-06T13:37:44.753Z,3.17
2022-12-06T13:40:51.504Z,3.27
2022-12-06T13:43:55.742Z,3.53
2022-12-06T13:47:49.153Z,2.83
2022-12-06T13:50:56.298Z,2.73
2022-12-06T13:54:38.307Z,2.63
2022-12-06T13:57:42.759Z,2.80
2022-12-06T14:00:51.093Z,2.93
2022-12-06T14:03:58.202Z,2.77
2022-12-06T14:07:05.103Z,2.80
2022-12-06T14:10:15.013Z,3.03
2022-12-06T14:13:21.921Z,3.10
2022-12-06T14:16:33.737Z,2.73
2022-12-06T14:19:46.053Z,2.43
2022-12-06T14:22:50.922Z,2.80
2022-12-06T14:26:16.625Z,2.97
2022-12-06T14:29:24.872Z,3.50
2022-12-06T14:32:34.831Z,2.83
2022-12-06T14:35:40.425Z,3.00
2022-12-06T14:38:44.262Z,3.10
2022-12-06T14:42:14.645Z,2.80
2022-12-06T14:45:19.084Z,3.23
2022-12-06T14:48:24.041Z,3.10
2022-12-06T14:51:36.756Z,10.03
2022-12-06T14:54:44.533Z,8.67
2022-12-06T14:57:56.227Z,8.80
2022-12-06T15:01:05.175Z,7.97
2022-12-06T15:04:10.263Z,6.90
2022-12-06T15:07:41.461Z,6.90
2022-12-06T15:10:56.289Z,6.60
2022-12-06T15:14:16.370Z,5.63
2022-12-06T15:17:24.595Z,4.90
2022-12-06T15:20:28.139Z,5.03
2022-12-06T15:23:39.063Z,4.43
2022-12-06T15:26:42.677Z,4.57
2022-12-06T15:29:47.778Z,4.00
2022-12-06T15:32:51.417Z,4.27
2022-12-06T15:35:55.941Z,3.63
2022-12-06T15:38:59.838Z,3.80
2022-12-06T15:42:03.849Z,4.00
2022-12-06T15:45:17.986Z,4.07
2022-12-06T15:48:21.695Z,3.97
2022-12-06T15:51:29.018Z,4.40
2022-12-06T15:54:32.672Z,3.80
2022-12-06T15:57:36.307Z,4.03
2022-12-06T16:00:41.402Z,4.40
2022-12-06T16:03:45.618Z,4.27
2022-12-06T16:06:49.922Z,4.20
2022-12-06T16:09:53.563Z,4.17
2022-12-06T16:13:14.570Z,4.43
2022-12-06T16:16:21.333Z,4.80
2022-12-06T16:19:45.316Z,5.00
2022-12-06T16:23:06.701Z,4.83
2022-12-06T16:26:11.057Z,6.23
2022-12-06T16:29:17.254Z,7.90
2022-12-06T16:32:22.333Z,9.00
2022-12-06T16:35:26.051Z,9.37
2022-12-06T16:38:30.041Z,8.67
2022-12-06T16:41:36.398Z,9.93
2022-12-06T16:44:51.142Z,7.87
2022-12-06T16:47:56.449Z,7.60
2022-12-06T16:51:00.094Z,7.87
2022-12-06T16:54:05.546Z,8.50
2022-12-06T16:57:10.056Z,8.90
2022-12-06T17:00:17.086Z,8.47
2022-12-06T17:03:22.107Z,7.60
2022-12-06T17:06:27.046Z,6.70
2022-12-06T17:09:30.734Z,5.50
2022-12-06T17:12:34.434Z,5.07
2022-12-06T17:15:38.082Z,5.90
2022-12-06T17:18:44.030Z,6.00
2022-12-06T17:21:48.510Z,6.13
2022-12-06T17:24:52.211Z,5.53
2022-12-06T17:27:55.877Z,5.83
2022-12-06T17:30:59.521Z,4.87
2022-12-06T17:34:07.592Z,4.70
2022-12-06T17:37:11.627Z,4.87
2022-12-06T17:40:16.132Z,4.87
2022-12-06T17:43:19.590Z,5.93
2022-12-06T17:46:23.272Z,6.20
2022-12-06T17:49:29.485Z,7.10
2022-12-06T17:52:33.082Z,6.20
2022-12-06T17:55:36.791Z,6.70
2022-12-06T17:58:40.401Z,6.63
2022-12-06T18:02:13.492Z,6.13
2022-12-06T18:05:10.623Z,6.47
2022-12-06T18:08:14.374Z,6.60
2022-12-06T18:11:18.909Z,6.83
2022-12-06T18:14:22.528Z,6.30
2022-12-06T18:17:26.410Z,7.67
2022-12-06T18:20:31.626Z,6.40
2022-12-06T18:23:40.793Z,6.20
2022-12-06T18:26:48.710Z,6.77
2022-12-06T18:29:52.379Z,6.60
2022-12-06T18:32:56.021Z,7.33
2022-12-06T18:36:01.968Z,7.20
2022-12-06T18:39:14.129Z,6.43
2022-12-06T18:42:18.751Z,7.97
2022-12-06T18:45:34.269Z,9.07
2022-12-06T18:48:41.235Z,9.83
2022-12-06T18:51:46.646Z,9.63
2022-12-06T18:54:50.299Z,10.70
2022-12-06T18:57:54.111Z,12.90
2022-12-06T19:00:57.903Z,13.77
2022-12-06T19:04:04.324Z,11.40
2022-12-06T19:07:09.354Z,11.43
2022-12-06T19:10:13.182Z,11.53
2022-12-06T19:13:16.716Z,11.23
2022-12-06T19:16:23.116Z,12.27
2022-12-06T19:19:28.141Z,12.17
2022-12-06T19:22:34.973Z,10.87
2022-12-06T19:25:38.621Z,12.93
2022-12-06T19:28:43.115Z,11.60
2022-12-06T19:31:48.475Z,11.67
2022-12-06T19:34:52.470Z,11.43
2022-12-06T19:37:57.365Z,12.27
2022-12-06T19:41:05.043Z,12.97
2022-12-06T19:44:17.392Z,12.33
2022-12-06T19:47:21.750Z,11.53
2022-12-06T19:50:25.650Z,11.10
2022-12-06T19:53:35.418Z,11.67
2022-12-06T19:56:39.815Z,10.50
2022-12-06T19:59:43.524Z,10.47
2022-12-06T20:02:47.377Z,11.83
2022-12-06T20:05:51.884Z,11.43
2022-12-06T20:09:01.809Z,11.53
2022-12-06T20:12:08.385Z,11.50
2022-12-06T20:15:13.455Z,12.00
2022-12-06T20:18:18.776Z,11.57
2022-12-06T20:21:22.912Z,12.07
2022-12-06T20:24:28.122Z,11.30
2022-12-06T20:27:49.618Z,11.67
2022-12-06T20:30:53.362Z,11.53
2022-12-06T20:33:59.294Z,11.90
2022-12-06T20:37:06.144Z,12.07
2022-12-06T20:40:13.172Z,11.47
2022-12-06T20:43:16.858Z,12.23
2022-12-06T20:46:25.031Z,13.10
2022-12-06T20:49:28.778Z,11.57
2022-12-06T20:52:32.571Z,11.73
2022-12-06T20:55:37.581Z,12.87
2022-12-06T20:58:42.217Z,11.57
2022-12-06T21:01:46.209Z,11.27
2022-12-06T21:04:49.861Z,10.97
2022-12-06T21:07:53.765Z,12.00
2022-12-06T21:11:22.302Z,11.77
2022-12-06T21:14:24.588Z,11.60
2022-12-06T21:17:33.615Z,11.77
2022-12-06T21:20:39.833Z,13.33
2022-12-06T21:23:43.561Z,13.57
2022-12-06T21:26:49.668Z,13.30
2022-12-06T21:29:53.240Z,14.63
2022-12-06T21:32:57.102Z,15.07
2022-12-06T21:36:05.530Z,15.07
2022-12-06T21:39:09.423Z,16.10
2022-12-06T21:42:15.784Z,16.37
2022-12-06T21:45:20.945Z,15.33
2022-12-06T21:48:24.644Z,15.23
2022-12-06T21:51:31.238Z,17.23
2022-12-06T21:54:36.333Z,15.80
2022-12-06T21:57:41.868Z,14.73
2022-12-06T22:00:45.655Z,15.30
2022-12-06T22:03:50.447Z,13.80
2022-12-06T22:06:54.214Z,14.07
2022-12-06T22:09:58.080Z,14.43
2022-12-06T22:13:03.462Z,13.87
2022-12-06T22:16:10.919Z,14.73
2022-12-06T22:19:14.721Z,12.17
2022-12-06T22:22:19.635Z,14.03
2022-12-06T22:25:23.544Z,13.77
2022-12-06T22:28:28.741Z,13.93
2022-12-06T22:31:34.653Z,14.07
2022-12-06T22:34:38.319Z,13.97
2022-12-06T22:37:42.181Z,14.33
2022-12-06T22:40:45.923Z,13.77
2022-12-06T22:43:54.649Z,14.77
2022-12-06T22:46:58.333Z,15.00
2022-12-06T22:50:02.298Z,14.77
2022-12-06T22:53:06.957Z,14.27
2022-12-06T22:56:12.097Z,14.53
2022-12-06T22:59:18.022Z,14.10
2022-12-06T23:02:21.859Z,14.13
2022-12-06T23:05:25.491Z,14.03
2022-12-06T23:08:29.302Z,14.33
2022-12-06T23:11:35.774Z,14.10
2022-12-06T23:14:41.136Z,14.70
2022-12-06T23:17:46.706Z,14.30
2022-12-06T23:20:50.299Z,14.30
2022-12-06T23:23:56.834Z,14.33
2022-12-06T23:27:00.498Z,13.90
2022-12-06T23:30:06.956Z,14.10
2022-12-06T23:33:10.660Z,14.63
2022-12-06T23:36:18.640Z,13.77
2022-12-06T23:39:22.424Z,15.27
2022-12-06T23:42:26.105Z,14.33
2022-12-06T23:45:32.750Z,14.93
2022-12-06T23:48:37.161Z,14.70
2022-12-06T23:52:07.586Z,14.93
2022-12-06T23:55:11.954Z,14.97
2022-12-06T23:58:15.594Z,13.83
